Time;durP1;ratioP1;P1;durP2;ratioP2;P2;SDS_P1;SDS_P2;PMS_P1;PMS_P2;Temp;Humidity;BMP_temperature;BMP_pressure;BME280_temperature;BME280_humidity;BME280_pressure;Samples;Min_cycle;Max_cycle;Signal;HPM_P1;HPM_P2
2021/12/04 00:02:22;;;;;;;10.00;7.33;;;2.10;99.90;;;;;;5039325;28;20194;-73
2021/12/04 00:04:50;;;;;;;10.30;6.80;;;2.10;99.90;;;;;;5035228;28;20210;-73
2021/12/04 00:07:16;;;;;;;10.13;5.93;;;2.30;99.90;;;;;;5041974;28;20216;-74
2021/12/04 00:13:04;;;;;;;9.13;6.77;;;2.20;99.90;;;;;;5022827;28;20229;-76
2021/12/04 00:15:29;;;;;;;8.20;6.80;;;2.20;99.90;;;;;;5030184;28;20206;-74
2021/12/04 00:17:56;;;;;;;7.03;6.20;;;2.10;99.90;;;;;;5037064;28;20283;-75
2021/12/04 00:20:24;;;;;;;9.23;6.20;;;2.10;99.90;;;;;;5039945;28;20208;-74
2021/12/04 00:22:50;;;;;;;6.87;5.87;;;2.20;99.90;;;;;;5037919;28;20682;-74
2021/12/04 00:25:16;;;;;;;8.23;5.20;;;2.10;99.90;;;;;;5039282;28;20205;-74
2021/12/04 00:27:41;;;;;;;9.60;5.90;;;2.20;99.90;;;;;;5036224;28;20213;-74
2021/12/04 00:30:08;;;;;;;9.03;6.10;;;2.20;99.90;;;;;;5034353;28;20232;-74
2021/12/04 00:32:36;;;;;;;10.00;6.43;;;2.20;99.90;;;;;;5034998;28;20217;-74
2021/12/04 00:50:53;;;;;;;8.43;5.97;;;2.20;99.90;;;;;;5030584;28;20206;-74
2021/12/04 00:53:19;;;;;;;7.90;5.87;;;2.20;99.90;;;;;;5040052;28;20201;-74
2021/12/04 00:55:44;;;;;;;8.17;6.53;;;2.10;99.90;;;;;;5032848;28;20229;-72
2021/12/04 00:58:10;;;;;;;6.57;5.60;;;2.20;99.90;;;;;;5038811;28;20303;-73
2021/12/04 01:00:36;;;;;;;5.50;4.97;;;2.20;99.90;;;;;;5038159;28;20214;-73
2021/12/04 01:03:01;;;;;;;8.50;6.10;;;2.20;99.90;;;;;;5036592;28;20980;-74
2021/12/04 01:05:27;;;;;;;8.83;6.20;;;2.20;99.90;;;;;;5034436;28;20203;-74
2021/12/04 01:07:52;;;;;;;7.53;6.27;;;2.20;99.90;;;;;;5036866;28;20614;-74
2021/12/04 01:10:18;;;;;;;7.10;6.30;;;2.30;99.90;;;;;;5036977;28;20685;-72
2021/12/04 01:12:43;;;;;;;8.30;5.80;;;2.30;99.90;;;;;;5041104;28;20191;-71
2021/12/04 01:15:10;;;;;;;9.63;6.07;;;2.30;99.90;;;;;;5039619;28;20311;-73
2021/12/04 01:17:36;;;;;;;8.20;5.77;;;2.30;99.90;;;;;;5034646;28;20199;-74
2021/12/04 01:20:02;;;;;;;9.77;6.33;;;2.30;99.90;;;;;;5036048;28;20202;-76
2021/12/04 01:22:28;;;;;;;7.73;6.53;;;2.20;99.90;;;;;;5028589;28;20196;-72
2021/12/04 01:24:54;;;;;;;7.67;6.30;;;2.20;99.90;;;;;;5034888;28;20256;-73
2021/12/04 01:27:19;;;;;;;6.73;6.03;;;2.20;99.90;;;;;;5039627;28;20590;-73
2021/12/04 01:29:44;;;;;;;8.27;6.90;;;2.30;99.90;;;;;;5035246;28;20639;-71
2021/12/04 01:32:10;;;;;;;9.63;6.40;;;2.30;99.90;;;;;;5035506;28;20232;-70
2021/12/04 01:34:37;;;;;;;7.27;6.27;;;2.30;99.90;;;;;;5029868;28;20668;-70
2021/12/04 01:37:04;;;;;;;10.07;6.70;;;2.40;99.90;;;;;;5044637;28;20203;-70
2021/12/04 01:39:30;;;;;;;6.83;5.90;;;2.30;99.90;;;;;;5032915;28;20624;-70
2021/12/04 01:41:56;;;;;;;10.30;6.93;;;2.30;99.90;;;;;;5045992;28;20304;-74
2021/12/04 01:44:22;;;;;;;6.17;5.57;;;2.20;99.90;;;;;;5027342;28;20627;-68
2021/12/04 01:46:49;;;;;;;7.20;6.50;;;2.30;99.90;;;;;;5027276;28;20217;-74
2021/12/04 01:49:15;;;;;;;7.60;6.33;;;2.30;99.90;;;;;;5034541;28;20272;-70
2021/12/04 01:51:40;;;;;;;9.07;7.27;;;2.20;99.90;;;;;;5038784;28;20205;-70
2021/12/04 01:54:06;;;;;;;8.73;7.83;;;2.20;99.90;;;;;;5041537;28;20192;-75
2021/12/04 01:56:33;;;;;;;9.57;6.70;;;2.30;99.90;;;;;;5035378;28;20265;-70
2021/12/04 01:58:59;;;;;;;7.27;5.93;;;2.20;99.90;;;;;;5034307;28;20184;-70
2021/12/04 02:01:25;;;;;;;9.83;6.53;;;2.20;99.90;;;;;;5039976;28;20673;-70
2021/12/04 02:03:51;;;;;;;7.80;6.43;;;2.30;99.90;;;;;;5034184;28;20197;-75
2021/12/04 02:06:16;;;;;;;6.43;5.77;;;2.30;99.90;;;;;;5052419;28;20214;-70
2021/12/04 02:08:43;;;;;;;9.00;5.77;;;2.30;99.90;;;;;;5034105;28;20181;-70
2021/12/04 02:11:09;;;;;;;6.93;6.03;;;2.30;99.90;;;;;;5043652;28;20205;-71
2021/12/04 02:13:34;;;;;;;6.53;5.93;;;2.40;99.90;;;;;;5044907;28;20212;-70
2021/12/04 02:16:03;;;;;;;7.97;6.40;;;2.40;99.90;;;;;;5034335;28;20266;-81
2021/12/04 02:18:29;;;;;;;7.67;5.87;;;2.40;99.90;;;;;;5029239;28;20206;-70
2021/12/04 02:20:54;;;;;;;7.90;7.10;;;2.40;99.90;;;;;;5036326;28;20200;-70
2021/12/04 02:23:20;;;;;;;7.30;6.30;;;2.30;99.90;;;;;;5041007;28;20201;-73
2021/12/04 02:25:46;;;;;;;9.00;6.10;;;2.30;99.90;;;;;;5040694;28;20674;-73
2021/12/04 02:28:12;;;;;;;8.37;6.33;;;2.30;99.90;;;;;;5035657;28;20225;-73
2021/12/04 02:30:41;;;;;;;7.33;6.13;;;2.40;99.90;;;;;;5044983;28;20210;-76
2021/12/04 02:33:16;;;;;;;7.60;6.90;;;2.50;99.90;;;;;;5040307;28;20206;-76
2021/12/04 02:35:53;;;;;;;9.03;6.67;;;2.40;99.90;;;;;;5046212;28;20188;-75
2021/12/04 02:38:23;;;;;;;8.20;7.27;;;2.40;99.90;;;;;;5042104;28;20541;-77
2021/12/04 02:40:49;;;;;;;7.23;6.07;;;2.40;99.90;;;;;;5044917;28;20194;-78
2021/12/04 02:43:15;;;;;;;6.73;5.93;;;2.40;99.90;;;;;;5029790;28;20217;-78
2021/12/04 02:45:42;;;;;;;8.00;6.07;;;2.30;99.90;;;;;;5045321;28;20747;-77
2021/12/04 02:48:08;;;;;;;10.73;6.90;;;2.40;99.90;;;;;;5042452;28;20241;-79
2021/12/04 02:50:34;;;;;;;11.60;7.67;;;2.40;99.90;;;;;;5040662;28;20617;-76
2021/12/04 02:52:59;;;;;;;8.23;6.57;;;2.40;99.90;;;;;;5032681;28;20208;-76
2021/12/04 02:55:25;;;;;;;7.07;6.47;;;2.40;99.90;;;;;;5042006;28;20192;-76
2021/12/04 02:57:50;;;;;;;7.63;6.57;;;2.40;99.90;;;;;;5043390;28;20262;-75
2021/12/04 03:00:19;;;;;;;9.23;6.40;;;2.40;99.90;;;;;;5032044;28;20284;-67
2021/12/04 03:02:46;;;;;;;7.17;6.50;;;2.30;99.90;;;;;;5028321;28;20292;-69
2021/12/04 03:05:12;;;;;;;9.20;7.20;;;2.40;99.90;;;;;;5033691;28;20196;-64
2021/12/04 03:07:38;;;;;;;7.83;5.77;;;2.40;99.90;;;;;;5036069;28;20210;-64
2021/12/04 03:10:06;;;;;;;8.90;6.53;;;2.40;99.90;;;;;;5037894;28;20304;-64
2021/12/04 03:12:32;;;;;;;6.97;6.23;;;2.50;99.90;;;;;;5035401;28;20264;-64
2021/12/04 03:14:57;;;;;;;7.47;6.70;;;2.40;99.90;;;;;;5031462;28;20306;-65
2021/12/04 03:17:25;;;;;;;10.90;8.40;;;2.40;99.90;;;;;;5038162;28;20194;-66
2021/12/04 03:19:52;;;;;;;7.90;6.73;;;2.40;99.90;;;;;;5034715;28;20208;-65
2021/12/04 03:22:19;;;;;;;7.20;6.50;;;2.40;99.90;;;;;;5030230;28;20189;-65
2021/12/04 03:24:46;;;;;;;7.60;6.57;;;2.30;99.90;;;;;;5038457;28;20244;-65
2021/12/04 03:27:13;;;;;;;6.93;6.23;;;2.30;99.90;;;;;;5033853;28;20210;-70
2021/12/04 03:29:47;;;;;;;8.10;7.30;;;2.40;99.90;;;;;;5035731;28;20227;-66
2021/12/04 03:32:25;;;;;;;7.50;6.73;;;2.50;99.90;;;;;;5037406;28;20571;-66
2021/12/04 03:40:04;;;;;;;9.37;7.17;;;2.50;99.90;;;;;;5038289;28;20217;-64
2021/12/04 03:40:53;;;;;;;7.03;5.77;;;2.60;99.90;;;;;;5033165;28;20205;-67
2021/12/04 03:43:19;;;;;;;8.47;6.30;;;2.50;99.90;;;;;;5042196;28;20229;-67
2021/12/04 03:45:47;;;;;;;8.67;6.90;;;2.50;99.90;;;;;;5058359;28;20659;-67
2021/12/04 03:50:58;;;;;;;8.37;7.07;;;2.50;99.90;;;;;;5044487;28;20248;-67
2021/12/04 03:53:26;;;;;;;9.73;6.80;;;2.40;99.90;;;;;;5035370;28;20199;-65
2021/12/04 03:55:52;;;;;;;8.03;6.47;;;2.50;99.90;;;;;;5068178;28;20207;-67
2021/12/04 03:58:18;;;;;;;9.10;7.27;;;2.50;99.90;;;;;;5034464;28;20274;-67
2021/12/04 04:00:45;;;;;;;9.67;6.53;;;2.40;99.90;;;;;;5041418;28;20197;-66
2021/12/04 04:03:10;;;;;;;8.43;7.37;;;2.50;99.90;;;;;;5041489;28;20205;-66
2021/12/04 04:05:36;;;;;;;8.90;6.93;;;2.50;99.90;;;;;;5047945;28;20348;-66
2021/12/04 04:08:02;;;;;;;10.30;7.53;;;2.60;99.90;;;;;;5043734;28;20256;-65
2021/12/04 04:10:28;;;;;;;8.83;6.47;;;2.60;99.90;;;;;;5045963;28;20250;-66
2021/12/04 04:12:54;;;;;;;9.13;6.47;;;2.60;99.90;;;;;;5045708;28;20221;-65
2021/12/04 04:15:21;;;;;;;8.30;6.70;;;2.70;99.90;;;;;;5040197;28;20576;-66
2021/12/04 04:17:47;;;;;;;7.63;6.83;;;2.70;99.90;;;;;;5039792;28;20399;-66
2021/12/04 04:20:16;;;;;;;8.27;6.17;;;2.70;99.90;;;;;;5050036;28;20220;-65
2021/12/04 04:22:42;;;;;;;7.63;6.83;;;2.80;99.90;;;;;;5050074;28;20288;-66
2021/12/04 04:25:09;;;;;;;8.93;7.03;;;2.60;99.90;;;;;;5043641;28;20209;-65
2021/12/04 04:27:35;;;;;;;7.77;6.80;;;2.60;99.90;;;;;;5045541;28;20229;-66
2021/12/04 04:30:03;;;;;;;7.30;6.30;;;2.70;99.90;;;;;;5048173;28;20169;-65
2021/12/04 04:32:29;;;;;;;9.07;6.73;;;2.70;99.90;;;;;;5040749;28;20207;-67
2021/12/04 04:34:55;;;;;;;8.03;7.17;;;2.60;99.90;;;;;;5036476;28;20336;-65
2021/12/04 04:37:34;;;;;;;7.13;6.10;;;2.70;99.90;;;;;;5054863;28;20195;-66
2021/12/04 05:02:32;;;;;;;11.13;7.97;;;2.70;99.90;;;;;;5039967;28;20214;-67
2021/12/04 05:10:50;;;;;;;10.57;9.00;;;2.70;99.90;;;;;;5041311;28;20559;-65
2021/12/04 05:13:18;;;;;;;12.93;10.27;;;2.60;99.90;;;;;;5046770;28;20259;-64
2021/12/04 05:21:03;;;;;;;12.33;9.67;;;2.60;99.90;;;;;;5032768;28;20230;-65
2021/12/04 05:23:29;;;;;;;11.07;9.43;;;2.60;99.90;;;;;;5039409;28;20233;-65
2021/12/04 05:25:55;;;;;;;12.07;9.33;;;2.60;99.90;;;;;;5046127;28;20197;-66
2021/12/04 05:28:20;;;;;;;11.33;10.20;;;2.60;99.90;;;;;;5037553;28;20211;-66
2021/12/04 05:30:46;;;;;;;12.03;9.67;;;2.60;99.90;;;;;;5056253;28;20188;-65
2021/12/04 05:33:11;;;;;;;12.70;9.43;;;2.60;99.90;;;;;;5040060;28;20245;-66
2021/12/04 05:35:37;;;;;;;11.23;10.13;;;2.60;99.90;;;;;;5062275;28;20213;-65
2021/12/04 05:38:02;;;;;;;10.97;9.90;;;2.50;99.90;;;;;;5042518;28;20264;-65
2021/12/04 05:40:28;;;;;;;12.30;10.37;;;2.70;99.90;;;;;;5050300;28;20211;-66
2021/12/04 05:43:00;;;;;;;11.30;9.47;;;2.50;99.90;;;;;;5045714;28;20210;-65
2021/12/04 05:45:27;;;;;;;13.33;10.33;;;2.50;99.90;;;;;;5026958;28;20234;-65
2021/12/04 05:48:07;;;;;;;12.67;10.30;;;2.50;99.90;;;;;;5044925;28;20225;-66
2021/12/04 05:53:30;;;;;;;12.03;9.03;;;2.60;99.90;;;;;;5036071;28;20223;-66
2021/12/04 05:55:56;;;;;;;12.20;10.03;;;2.40;99.90;;;;;;5066424;28;20642;-66
2021/12/04 05:58:27;;;;;;;12.47;10.03;;;2.40;99.90;;;;;;5031458;28;20209;-65
2021/12/04 06:00:55;;;;;;;12.13;10.77;;;2.40;99.90;;;;;;5026339;28;20572;-65
2021/12/04 06:03:21;;;;;;;11.47;10.17;;;2.40;99.90;;;;;;5041969;28;20202;-63
2021/12/04 06:05:47;;;;;;;11.23;10.10;;;2.50;99.90;;;;;;5055884;28;20593;-65
2021/12/04 06:08:13;;;;;;;12.80;10.20;;;2.50;99.90;;;;;;5040202;28;20216;-63
2021/12/04 06:10:39;;;;;;;13.60;10.73;;;2.50;99.90;;;;;;5053836;28;20226;-65
2021/12/04 06:13:05;;;;;;;13.30;11.00;;;2.40;99.90;;;;;;5045054;28;20246;-67
2021/12/04 06:15:30;;;;;;;13.37;10.60;;;2.40;99.90;;;;;;5051185;28;20190;-67
2021/12/04 06:17:56;;;;;;;12.20;10.43;;;2.40;99.90;;;;;;5048257;28;20664;-66
2021/12/04 06:23:07;;;;;;;11.33;10.03;;;2.50;99.90;;;;;;5033246;28;20228;-66
2021/12/04 06:25:32;;;;;;;9.93;8.87;;;2.40;99.90;;;;;;5042260;28;20195;-66
2021/12/04 06:27:58;;;;;;;9.93;8.93;;;2.30;99.90;;;;;;5042350;28;20249;-65
2021/12/04 06:30:25;;;;;;;9.77;8.57;;;2.30;99.90;;;;;;5046910;28;20181;-65
2021/12/04 06:32:53;;;;;;;12.40;9.43;;;2.30;99.90;;;;;;5036812;28;20233;-66
2021/12/04 06:35:22;;;;;;;11.23;9.40;;;2.30;99.90;;;;;;5050039;28;20678;-66
2021/12/04 06:37:48;;;;;;;9.97;8.97;;;2.30;99.90;;;;;;5045815;28;20216;-66
2021/12/04 06:40:15;;;;;;;10.10;7.50;;;2.30;99.90;;;;;;5055840;28;20198;-66
2021/12/04 06:42:41;;;;;;;9.27;8.37;;;2.30;99.90;;;;;;5049705;28;20593;-65
2021/12/04 06:45:08;;;;;;;10.63;9.53;;;2.30;99.90;;;;;;5056850;28;20271;-66
2021/12/04 06:47:35;;;;;;;9.87;8.83;;;2.30;99.90;;;;;;5062239;28;20240;-66
2021/12/04 06:50:08;;;;;;;10.03;8.67;;;2.30;99.90;;;;;;5042482;28;20183;-67
2021/12/04 06:52:35;;;;;;;8.67;7.83;;;2.40;99.90;;;;;;5056213;28;20206;-67
2021/12/04 06:55:02;;;;;;;10.53;8.13;;;2.40;99.90;;;;;;5032110;28;20697;-67
2021/12/04 06:57:29;;;;;;;12.47;8.70;;;2.40;99.90;;;;;;5053198;28;20274;-67
2021/12/04 06:59:56;;;;;;;9.07;8.27;;;2.50;99.90;;;;;;5037217;28;20233;-66
2021/12/04 07:02:22;;;;;;;8.90;8.00;;;2.50;99.90;;;;;;5049572;28;20277;-65
2021/12/04 07:04:47;;;;;;;9.33;8.40;;;2.50;99.90;;;;;;5028258;28;20897;-65
2021/12/04 07:07:14;;;;;;;9.23;7.77;;;2.50;99.90;;;;;;5040694;28;20217;-66
2021/12/04 07:09:40;;;;;;;9.63;7.97;;;2.50;99.90;;;;;;5029410;28;20193;-65
2021/12/04 07:12:07;;;;;;;9.57;8.10;;;2.50;99.90;;;;;;5043164;28;20236;-64
2021/12/04 07:14:34;;;;;;;9.37;8.03;;;2.40;99.90;;;;;;5049991;28;20335;-65
2021/12/04 07:17:02;;;;;;;10.83;8.80;;;2.40;99.90;;;;;;5047487;28;20264;-65
2021/12/04 07:19:29;;;;;;;11.13;8.60;;;2.40;99.90;;;;;;5039028;28;20184;-64
2021/12/04 07:21:54;;;;;;;9.23;7.73;;;2.40;99.90;;;;;;5051076;28;20198;-65
2021/12/04 07:24:20;;;;;;;9.37;8.47;;;2.40;99.90;;;;;;5034357;28;20191;-65
2021/12/04 07:26:46;;;;;;;10.40;8.07;;;2.50;99.90;;;;;;5044785;28;20217;-65
2021/12/04 07:29:11;;;;;;;9.67;7.23;;;2.50;99.90;;;;;;5031736;28;20222;-65
2021/12/04 07:31:39;;;;;;;10.17;8.93;;;2.40;99.90;;;;;;5063438;28;20197;-65
2021/12/04 07:34:05;;;;;;;10.33;7.03;;;2.50;99.90;;;;;;5040639;28;20680;-65
2021/12/04 07:36:31;;;;;;;8.83;7.93;;;2.70;99.90;;;;;;5057096;28;20205;-65
2021/12/04 07:38:59;;;;;;;10.07;7.63;;;2.60;99.90;;;;;;5032173;28;20213;-65
2021/12/04 07:41:25;;;;;;;9.57;7.57;;;2.60;99.90;;;;;;5050164;28;20267;-65
2021/12/04 07:43:51;;;;;;;7.40;6.70;;;2.70;99.90;;;;;;5032475;28;20209;-65
2021/12/04 07:46:17;;;;;;;8.97;7.37;;;2.60;99.90;;;;;;5059242;28;20543;-64
2021/12/04 07:48:42;;;;;;;8.03;7.20;;;2.70;99.90;;;;;;5029982;28;20203;-64
2021/12/04 07:51:10;;;;;;;9.27;8.23;;;2.70;99.90;;;;;;5055176;28;20221;-64
2021/12/04 07:53:35;;;;;;;9.23;6.80;;;2.60;99.90;;;;;;5035119;28;20209;-64
2021/12/04 07:56:01;;;;;;;11.73;7.30;;;2.60;99.90;;;;;;5037771;28;21066;-64
2021/12/04 07:58:27;;;;;;;7.87;7.17;;;2.50;99.90;;;;;;5035391;28;20687;-64
2021/12/04 08:00:53;;;;;;;9.93;7.90;;;2.60;99.90;;;;;;5062407;28;20232;-65
2021/12/04 08:03:18;;;;;;;8.10;6.87;;;2.60;99.90;;;;;;5036400;28;20251;-65
2021/12/04 08:05:47;;;;;;;8.17;7.20;;;2.60;99.90;;;;;;5045977;28;20392;-65
2021/12/04 08:08:13;;;;;;;12.10;7.30;;;2.70;99.90;;;;;;5038557;28;20619;-65
2021/12/04 08:10:39;;;;;;;7.90;6.17;;;2.80;99.90;;;;;;5052129;28;20195;-64
2021/12/04 08:13:05;;;;;;;9.63;6.90;;;2.80;99.90;;;;;;5042600;28;20265;-66
2021/12/04 08:15:32;;;;;;;7.63;6.60;;;2.70;99.90;;;;;;5061296;28;20679;-65
2021/12/04 08:17:58;;;;;;;8.17;7.20;;;2.80;99.90;;;;;;5055623;28;20206;-66
2021/12/04 08:20:25;;;;;;;9.97;7.73;;;2.80;99.90;;;;;;5047635;28;20535;-64
2021/12/04 08:22:51;;;;;;;10.47;7.60;;;2.70;99.90;;;;;;5055638;28;20263;-65
2021/12/04 08:25:18;;;;;;;8.33;7.27;;;2.70;99.90;;;;;;5049839;28;20199;-65
2021/12/04 08:27:45;;;;;;;7.93;6.97;;;2.70;99.90;;;;;;5048928;28;20222;-65
2021/12/04 08:30:15;;;;;;;8.90;6.23;;;2.70;99.90;;;;;;5050705;28;20225;-65
2021/12/04 08:32:41;;;;;;;7.00;6.13;;;2.80;99.90;;;;;;5057983;28;20668;-66
2021/12/04 08:35:09;;;;;;;8.20;6.50;;;2.70;99.90;;;;;;5055614;28;20191;-65
2021/12/04 08:37:35;;;;;;;12.80;6.70;;;2.80;99.90;;;;;;5043214;28;20617;-66
2021/12/04 08:40:03;;;;;;;9.57;7.03;;;2.80;99.90;;;;;;5043235;28;20179;-65
2021/12/04 08:42:28;;;;;;;10.47;6.67;;;2.70;99.90;;;;;;5040674;28;20207;-66
2021/12/04 08:44:54;;;;;;;10.17;5.97;;;2.80;99.90;;;;;;5038826;28;20272;-66
2021/12/04 08:47:20;;;;;;;9.07;6.20;;;2.70;99.90;;;;;;5054697;28;20214;-66
2021/12/04 08:49:45;;;;;;;7.67;6.20;;;2.80;99.90;;;;;;5030647;28;20650;-65
2021/12/04 08:52:16;;;;;;;7.90;6.20;;;2.80;99.90;;;;;;5061365;28;20206;-65
2021/12/04 08:54:42;;;;;;;7.70;6.90;;;3.00;99.90;;;;;;5047206;28;20182;-65
2021/12/04 08:57:08;;;;;;;8.17;6.40;;;2.90;99.90;;;;;;5045829;28;20300;-64
2021/12/04 08:59:34;;;;;;;9.57;6.23;;;3.00;99.90;;;;;;5038732;28;20226;-65
2021/12/04 09:02:01;;;;;;;9.50;6.83;;;3.00;99.90;;;;;;5048075;28;20203;-63
2021/12/04 09:04:30;;;;;;;6.90;6.20;;;2.90;99.90;;;;;;5037432;28;20194;-64
2021/12/04 09:06:58;;;;;;;11.03;7.37;;;3.00;99.90;;;;;;5046402;28;20234;-64
2021/12/04 09:09:24;;;;;;;6.07;5.50;;;3.00;99.90;;;;;;5037854;28;20574;-65
2021/12/04 09:11:59;;;;;;;9.40;6.90;;;3.00;99.90;;;;;;5042187;28;20222;-65
2021/12/04 09:14:28;;;;;;;10.30;6.90;;;3.00;99.90;;;;;;5060313;28;20226;-64
2021/12/04 09:16:55;;;;;;;7.17;6.47;;;3.20;99.90;;;;;;5059535;28;20228;-64
2021/12/04 09:19:22;;;;;;;8.83;7.50;;;3.20;99.90;;;;;;5037608;28;20195;-64
2021/12/04 09:21:49;;;;;;;8.03;7.23;;;3.30;99.90;;;;;;5042320;28;20223;-64
2021/12/04 09:24:16;;;;;;;10.90;7.97;;;3.20;99.90;;;;;;5034156;28;20277;-66
2021/12/04 09:26:57;;;;;;;11.27;7.40;;;3.10;99.90;;;;;;5064411;28;20206;-65
2021/12/04 09:32:29;;;;;;;8.73;7.83;;;3.30;99.90;;;;;;5037770;28;20284;-66
2021/12/04 10:04:59;;;;;;;13.13;9.43;;;3.40;99.90;;;;;;5031428;28;20187;-66
2021/12/04 10:21:17;;;;;;;16.43;11.07;;;3.40;99.90;;;;;;5062750;28;20201;-73
2021/12/04 10:32:55;;;;;;;12.63;10.50;;;3.50;99.90;;;;;;5051985;28;20194;-72
2021/12/04 10:35:23;;;;;;;12.30;9.47;;;3.30;99.90;;;;;;5040564;28;20264;-75
2021/12/04 10:37:58;;;;;;;12.57;10.23;;;3.40;99.90;;;;;;5037680;28;20215;-73
2021/12/04 10:40:37;;;;;;;9.87;8.73;;;3.50;99.90;;;;;;5023946;28;20195;-72
2021/12/04 10:43:05;;;;;;;11.40;9.47;;;3.40;99.90;;;;;;5025138;28;20724;-72
2021/12/04 10:45:40;;;;;;;12.13;9.47;;;3.30;99.90;;;;;;5033528;28;20678;-72
2021/12/04 10:48:10;;;;;;;13.07;10.13;;;3.30;99.90;;;;;;5049279;28;20210;-71
2021/12/04 10:50:45;;;;;;;11.67;9.20;;;3.30;99.90;;;;;;5033255;28;20206;-69
2021/12/04 10:53:17;;;;;;;11.50;8.53;;;3.20;99.90;;;;;;5025298;28;20205;-71
2021/12/04 11:04:14;;;;;;;12.50;10.00;;;3.10;99.90;;;;;;5027905;28;20218;-73
2021/12/04 11:21:39;;;;;;;10.53;9.03;;;3.00;99.90;;;;;;5035948;28;20734;-72
2021/12/04 11:24:41;;;;;;;10.87;9.50;;;3.00;99.90;;;;;;5030344;28;20246;-71
2021/12/04 11:27:29;;;;;;;10.00;8.57;;;3.10;99.90;;;;;;5025770;28;20272;-72
2021/12/04 11:36:09;;;;;;;10.60;9.13;;;3.10;99.90;;;;;;5030611;28;20552;-71
2021/12/04 11:38:27;;;;;;;10.60;9.53;;;3.20;99.90;;;;;;5034946;28;20203;-72
2021/12/04 11:41:12;;;;;;;10.87;9.57;;;3.20;99.90;;;;;;5046300;28;20306;-72
2021/12/04 11:43:50;;;;;;;41.83;38.47;;;3.20;99.90;;;;;;5022428;28;20301;-72
2021/12/04 11:46:22;;;;;;;12.33;11.00;;;3.30;99.90;;;;;;5033197;28;20247;-71
2021/12/04 11:48:48;;;;;;;13.13;10.07;;;3.30;99.90;;;;;;5023266;28;20512;-72
2021/12/04 11:51:25;;;;;;;13.03;10.73;;;3.30;99.90;;;;;;5054172;28;20194;-72
2021/12/04 11:53:52;;;;;;;12.13;10.23;;;3.30;99.90;;;;;;5026551;28;20206;-73
2021/12/04 11:56:24;;;;;;;11.97;10.20;;;3.20;99.90;;;;;;5048575;28;20218;-73
2021/12/04 11:58:51;;;;;;;11.77;10.23;;;3.20;99.90;;;;;;5026173;28;20207;-71
2021/12/04 12:01:30;;;;;;;12.43;9.47;;;3.20;99.90;;;;;;5049125;28;20522;-72
2021/12/04 12:04:02;;;;;;;13.07;10.50;;;3.20;99.90;;;;;;5025920;28;20261;-72
2021/12/04 12:06:37;;;;;;;13.23;11.53;;;3.20;99.90;;;;;;5027816;28;20238;-72
2021/12/04 12:09:12;;;;;;;13.30;10.50;;;3.20;99.90;;;;;;5027187;28;20674;-71
2021/12/04 12:11:53;;;;;;;13.10;10.77;;;3.20;99.90;;;;;;5067259;28;20197;-70
2021/12/04 12:14:23;;;;;;;13.33;11.03;;;3.30;99.90;;;;;;5048483;28;20301;-72
2021/12/04 12:16:55;;;;;;;13.90;11.53;;;3.30;99.90;;;;;;5051647;28;20550;-72
2021/12/04 12:19:30;;;;;;;13.10;11.67;;;3.20;99.90;;;;;;5043934;28;20198;-71
2021/12/04 12:22:06;;;;;;;12.27;10.97;;;3.30;99.90;;;;;;5045934;28;20193;-72
2021/12/04 12:33:07;;;;;;;12.77;10.70;;;3.30;99.90;;;;;;5025573;28;20253;-72
2021/12/04 12:38:51;;;;;;;12.37;10.70;;;3.30;99.90;;;;;;5027160;28;20720;-71
2021/12/04 12:41:23;;;;;;;11.60;10.33;;;3.20;99.90;;;;;;5057579;28;20197;-71
2021/12/04 12:44:00;;;;;;;11.90;10.67;;;3.20;99.90;;;;;;5034112;28;20568;-73
2021/12/04 12:46:39;;;;;;;11.07;9.90;;;3.20;99.90;;;;;;5038931;28;20711;-73
2021/12/04 12:49:17;;;;;;;18.40;10.63;;;3.20;99.90;;;;;;5024840;28;20202;-73
2021/12/04 12:51:45;;;;;;;12.97;10.67;;;3.10;99.90;;;;;;5027668;28;20278;-74
2021/12/04 12:54:42;;;;;;;11.23;9.53;;;3.10;99.90;;;;;;5036321;28;20713;-73
2021/12/04 12:57:20;;;;;;;10.97;9.87;;;3.10;99.90;;;;;;5034541;28;20597;-72
2021/12/04 13:11:35;;;;;;;12.40;10.53;;;3.00;99.90;;;;;;5047725;28;20685;-71
2021/12/04 13:14:22;;;;;;;9.67;8.40;;;3.30;99.90;;;;;;5036540;28;20225;-69
2021/12/04 13:16:49;;;;;;;9.57;8.33;;;3.30;99.90;;;;;;5033630;28;20202;-70
2021/12/04 13:19:19;;;;;;;10.30;8.10;;;3.30;99.90;;;;;;5046263;28;20208;-71
2021/12/04 13:21:51;;;;;;;8.53;7.73;;;3.20;99.90;;;;;;5059880;28;20763;-69
2021/12/04 13:24:21;;;;;;;8.43;7.63;;;3.30;99.90;;;;;;5029853;28;20193;-69
2021/12/04 13:26:51;;;;;;;7.77;7.00;;;3.30;99.90;;;;;;5047780;28;20686;-68
2021/12/04 13:29:20;;;;;;;7.63;6.47;;;3.30;99.90;;;;;;5034128;28;20602;-70
2021/12/04 13:31:55;;;;;;;10.40;7.23;;;3.30;99.90;;;;;;5043564;28;20199;-69
2021/12/04 13:34:26;;;;;;;11.20;8.13;;;3.40;99.90;;;;;;5037014;28;20732;-69
2021/12/04 13:36:53;;;;;;;7.57;6.80;;;3.30;99.90;;;;;;5024950;28;20230;-70
2021/12/04 13:39:19;;;;;;;7.53;6.73;;;3.30;99.90;;;;;;5035401;28;20705;-72
2021/12/04 13:41:47;;;;;;;8.57;6.90;;;3.30;99.90;;;;;;5047244;28;20209;-73
2021/12/04 13:44:15;;;;;;;6.77;6.03;;;3.30;99.90;;;;;;5034897;28;20216;-73
2021/12/04 13:46:43;;;;;;;8.07;6.63;;;3.30;99.90;;;;;;5060547;28;20305;-72
2021/12/04 13:49:15;;;;;;;16.80;13.03;;;3.30;99.90;;;;;;5043834;28;20286;-74
2021/12/04 13:51:41;;;;;;;8.23;7.33;;;3.30;99.90;;;;;;5061942;28;20186;-73
2021/12/04 13:54:08;;;;;;;8.70;7.73;;;3.30;99.90;;;;;;5030561;28;20661;-74
2021/12/04 13:56:34;;;;;;;9.63;8.10;;;3.30;99.90;;;;;;5041473;28;20215;-73
2021/12/04 13:59:05;;;;;;;8.70;7.80;;;3.20;99.90;;;;;;5032869;28;20200;-74
2021/12/04 14:01:41;;;;;;;9.67;8.07;;;3.20;99.90;;;;;;5024732;28;20196;-74
2021/12/04 14:04:15;;;;;;;10.33;9.23;;;3.20;99.90;;;;;;5023077;28;20230;-73
2021/12/04 14:06:47;;;;;;;11.77;9.67;;;3.20;99.90;;;;;;5061561;28;20746;-73
2021/12/04 14:09:13;;;;;;;14.83;10.73;;;3.20;99.90;;;;;;5034772;28;20207;-73
2021/12/04 14:11:40;;;;;;;10.43;9.13;;;3.10;99.90;;;;;;5034248;28;20194;-73
2021/12/04 14:14:14;;;;;;;14.37;11.90;;;3.20;99.90;;;;;;5055631;28;20297;-73
2021/12/04 14:16:42;;;;;;;13.17;10.10;;;3.20;99.90;;;;;;5031469;28;20204;-71
2021/12/04 14:19:19;;;;;;;13.17;11.77;;;3.20;99.90;;;;;;5037841;28;20194;-72
2021/12/04 14:22:10;;;;;;;13.03;11.53;;;3.20;99.90;;;;;;5038358;28;20213;-72
2021/12/04 14:24:44;;;;;;;14.50;11.57;;;3.20;99.90;;;;;;5030992;28;20193;-71
2021/12/04 14:27:15;;;;;;;15.27;12.40;;;3.20;99.90;;;;;;5025599;28;20243;-71
2021/12/04 14:29:46;;;;;;;12.40;10.67;;;3.10;99.90;;;;;;5037693;28;20261;-72
2021/12/04 14:32:16;;;;;;;15.20;12.20;;;3.10;99.90;;;;;;5023511;28;20201;-70
2021/12/04 14:34:41;;;;;;;13.40;11.27;;;3.10;99.90;;;;;;5037943;28;20194;-71
2021/12/04 14:37:16;;;;;;;13.33;11.73;;;3.10;99.90;;;;;;5045780;28;20201;-70
2021/12/04 14:39:45;;;;;;;13.50;11.90;;;3.10;99.90;;;;;;5035938;28;20247;-72
2021/12/04 14:42:17;;;;;;;16.40;12.10;;;3.10;99.90;;;;;;5034565;28;20248;-72
2021/12/04 14:44:51;;;;;;;13.90;11.90;;;3.10;99.90;;;;;;5034009;28;20205;-73
2021/12/04 14:47:18;;;;;;;15.60;13.27;;;3.10;99.90;;;;;;5027283;28;20214;-71
2021/12/04 14:49:45;;;;;;;17.50;13.60;;;3.10;99.90;;;;;;5033865;28;20186;-71
2021/12/04 14:52:23;;;;;;;19.27;15.10;;;3.20;99.90;;;;;;5044752;28;20198;-70
2021/12/04 14:54:49;;;;;;;24.83;16.40;;;3.20;99.90;;;;;;5033674;28;20179;-73
2021/12/04 14:57:24;;;;;;;18.73;15.07;;;3.20;99.90;;;;;;5030271;28;20261;-72
2021/12/04 15:00:09;;;;;;;20.67;15.73;;;3.20;99.90;;;;;;5040950;28;20195;-73
2021/12/04 15:02:36;;;;;;;21.90;15.43;;;3.20;99.90;;;;;;5050627;28;20202;-71
2021/12/04 15:05:03;;;;;;;20.00;14.80;;;3.10;99.90;;;;;;5031514;28;20224;-75
2021/12/04 15:07:32;;;;;;;20.23;16.10;;;3.10;99.90;;;;;;5032360;28;20653;-72
2021/12/04 15:09:58;;;;;;;21.37;15.03;;;3.00;99.90;;;;;;5035658;28;20260;-72
2021/12/04 15:12:30;;;;;;;23.10;18.07;;;3.00;99.90;;;;;;5032270;28;20199;-73
2021/12/04 15:15:04;;;;;;;23.53;17.43;;;3.00;99.90;;;;;;5036098;28;20293;-73
2021/12/04 15:17:30;;;;;;;23.50;17.13;;;3.10;99.90;;;;;;5026312;28;20205;-74
2021/12/04 15:20:11;;;;;;;20.53;15.17;;;3.10;99.90;;;;;;5035918;28;20828;-73
2021/12/04 15:22:44;;;;;;;23.00;17.20;;;3.00;99.90;;;;;;5028499;28;20208;-73
2021/12/04 15:25:16;;;;;;;24.20;17.47;;;3.00;99.90;;;;;;5038225;28;20633;-79
2021/12/04 15:27:44;;;;;;;21.03;16.90;;;3.10;99.90;;;;;;5053638;28;20209;-72
2021/12/04 15:30:15;;;;;;;24.17;17.60;;;3.00;99.90;;;;;;5037187;28;20186;-71
2021/12/04 15:32:42;;;;;;;20.97;16.10;;;3.00;99.90;;;;;;5044883;28;20234;-64
2021/12/04 15:38:05;;;;;;;20.30;15.40;;;2.90;99.90;;;;;;5039406;28;20685;-63
2021/12/04 15:40:47;;;;;;;20.63;16.03;;;2.90;99.90;;;;;;5028736;28;20439;-64
2021/12/04 15:54:06;;;;;;;23.90;18.40;;;2.90;99.90;;;;;;5035971;28;20234;-64
2021/12/04 15:56:43;;;;;;;20.07;15.77;;;2.80;99.90;;;;;;5028472;28;20225;-64
2021/12/04 15:59:31;;;;;;;22.73;15.67;;;2.80;99.90;;;;;;5026514;28;20364;-63
2021/12/04 16:02:07;;;;;;;24.13;15.80;;;2.80;99.90;;;;;;5040861;28;20709;-64
2021/12/04 16:04:33;;;;;;;18.90;15.03;;;2.80;99.90;;;;;;5041625;28;20227;-64
2021/12/04 16:07:01;;;;;;;19.23;15.17;;;2.80;99.90;;;;;;5054789;28;20236;-64